This is the latest recevied weather packets stored in our database for station/object BM1CCR-13. If no packets are shown the sender has not sent any weather packets the latest 10 day(s).
| Time | Temp. | Humidity | Pressure | Rain* | Wind** | Luminosity | Snow |
|---|---|---|---|---|---|---|---|
| 1777799378 | 27.78° C | 73% | 998.5 hPa | 0 mm | - | - | - |
| 1777799078 | 28.89° C | 71% | 998.4 hPa | 0 mm | - | - | - |
| 1777798792 | 28.89° C | 69% | 998.3 hPa | 0 mm | - | - | - |
| 1777798778 | 28.89° C | 69% | 998.2 hPa | 0 mm | - | - | - |
| 1777798492 | 28.89° C | 69% | 998.2 hPa | 0 mm | - | - | - |
| 1777798478 | 28.89° C | 68% | 998.2 hPa | 0 mm | - | - | - |
| 1777798192 | 28.89° C | 68% | 998.2 hPa | 0 mm | - | - | - |
| 1777798178 | 28.89° C | 68% | 998.3 hPa | 0 mm | - | - | - |
| 1777797878 | 30° C | 67% | 998.2 hPa | 0 mm | - | - | - |
| 1777797578 | 30° C | 65% | 998.2 hPa | 0 mm | - | - | - |
| 1777797278 | 30° C | 66% | 998.1 hPa | 0 mm | - | - | - |
| 1777796991 | 30° C | 65% | 998 hPa | 0 mm | - | - | - |
| 1777796978 | 30° C | 65% | 998.2 hPa | 0 mm | - | - | - |
| 1777796679 | 30° C | 63% | 998.2 hPa | 0 mm | - | - | - |
| 1777796391 | 30.56° C | 60% | 998.2 hPa | 0 mm | - | - | - |
| 1777796376 | 30.56° C | 61% | 998.2 hPa | 0 mm | - | - | - |
| 1777796090 | 30.56° C | 61% | 998 hPa | 0 mm | - | - | - |
| 1777796076 | 30.56° C | 61% | 998.1 hPa | 0 mm | - | - | - |
| 1777795790 | 30.56° C | 61% | 998.1 hPa | 0 mm | - | - | - |
| 1777795776 | 30.56° C | 61% | 998 hPa | 0 mm | - | - | - |
| 1777795475 | 31.67° C | 58% | 998 hPa | 0 mm | - | - | - |
| 1777795190 | 33.89° C | 56% | 998 hPa | 0 mm | - | - | - |
| 1777795175 | 33.89° C | 56% | 998.1 hPa | 0 mm | - | - | - |
| 1777794890 | 31.67° C | 64% | 997.9 hPa | 0 mm | - | - | - |
| 1777794875 | 31.67° C | 64% | 998.1 hPa | 0 mm | - | - | - |
* Rain latest hour (hover to see other rain measurements)
** Current wind speed in m/s (hover to see current wind gust speed)